Rosebud, Texas
Current Conditions -  °F | °C
As of 3:35 PM on Monday 24 Nov 2014 (Local Time) from KT35 Reporting Station
Clear Clear  
Wind Chill: 62°   Ceiling: Unl
Heat Index: 62°   Visibility: 10mi
Dew Point: 30°   Wind: 7mph
Humidity: 30%   Direction: 10°N
Pressure: 30.06"   Gusts: NA
Location:  31.07°N, 96.98°W
Report Text: KT35 242135Z AUTO 01006KT 10SM CLR 17/M01 A3006 RMK AO2 T01651013
Loading
Personal Weather Stations






























Interactive Weather Map New forecast layout! Learn more

10-Day Weather Forecast

Advertisements
Track Severe Weather on mobile